sensor_id;sensor_type;location;lat;lon;timestamp;temperature;humidity
14908;DHT22;7545;52.092;7.006;2022-07-30T00:02:02;19.20;99.90
14908;DHT22;7545;52.092;7.006;2022-07-30T00:04:27;19.20;99.90
14908;DHT22;7545;52.092;7.006;2022-07-30T00:06:53;19.10;99.90
14908;DHT22;7545;52.092;7.006;2022-07-30T00:09:18;19.10;99.90
14908;DHT22;7545;52.092;7.006;2022-07-30T00:11:44;19.00;99.90
14908;DHT22;7545;52.092;7.006;2022-07-30T00:14:10;19.00;99.90
14908;DHT22;7545;52.092;7.006;2022-07-30T00:16:36;19.00;99.90
14908;DHT22;7545;52.092;7.006;2022-07-30T00:19:02;19.00;99.90
14908;DHT22;7545;52.092;7.006;2022-07-30T00:21:28;18.90;99.90
14908;DHT22;7545;52.092;7.006;2022-07-30T00:23:53;18.90;99.90
14908;DHT22;7545;52.092;7.006;2022-07-30T00:26:19;18.80;99.90
14908;DHT22;7545;52.092;7.006;2022-07-30T00:28:45;18.80;99.90
14908;DHT22;7545;52.092;7.006;2022-07-30T00:31:10;18.70;99.90
14908;DHT22;7545;52.092;7.006;2022-07-30T00:33:36;18.70;99.90
14908;DHT22;7545;52.092;7.006;2022-07-30T00:36:02;18.60;99.90
14908;DHT22;7545;52.092;7.006;2022-07-30T00:38:27;18.60;99.90
14908;DHT22;7545;52.092;7.006;2022-07-30T00:40:53;18.50;99.90
14908;DHT22;7545;52.092;7.006;2022-07-30T00:43:19;18.50;99.90
14908;DHT22;7545;52.092;7.006;2022-07-30T00:45:45;18.50;99.90
14908;DHT22;7545;52.092;7.006;2022-07-30T00:48:12;18.40;99.90
14908;DHT22;7545;52.092;7.006;2022-07-30T00:50:38;18.40;99.90
14908;DHT22;7545;52.092;7.006;2022-07-30T00:53:05;18.40;99.90
14908;DHT22;7545;52.092;7.006;2022-07-30T00:55:30;18.30;99.90
14908;DHT22;7545;52.092;7.006;2022-07-30T00:57:56;18.20;99.90
14908;DHT22;7545;52.092;7.006;2022-07-30T01:00:22;18.20;99.90
14908;DHT22;7545;52.092;7.006;2022-07-30T01:02:48;18.20;99.90
14908;DHT22;7545;52.092;7.006;2022-07-30T01:05:15;18.20;99.90
14908;DHT22;7545;52.092;7.006;2022-07-30T01:07:41;18.10;99.90
14908;DHT22;7545;52.092;7.006;2022-07-30T01:10:10;18.10;99.90
14908;DHT22;7545;52.092;7.006;2022-07-30T01:12:36;18.10;99.90
14908;DHT22;7545;52.092;7.006;2022-07-30T01:15:04;18.10;99.90
14908;DHT22;7545;52.092;7.006;2022-07-30T01:17:32;18.10;99.90
14908;DHT22;7545;52.092;7.006;2022-07-30T01:20:01;18.10;99.90
14908;DHT22;7545;52.092;7.006;2022-07-30T01:22:38;18.10;99.90
14908;DHT22;7545;52.092;7.006;2022-07-30T01:25:36;18.00;99.90
14908;DHT22;7545;52.092;7.006;2022-07-30T01:28:08;18.00;99.90
14908;DHT22;7545;52.092;7.006;2022-07-30T01:30:39;18.00;99.90
14908;DHT22;7545;52.092;7.006;2022-07-30T01:33:06;18.00;99.90
14908;DHT22;7545;52.092;7.006;2022-07-30T01:35:33;17.90;99.90
14908;DHT22;7545;52.092;7.006;2022-07-30T01:38:01;17.90;99.90
14908;DHT22;7545;52.092;7.006;2022-07-30T01:40:28;17.90;99.90
14908;DHT22;7545;52.092;7.006;2022-07-30T01:42:58;17.80;99.90
14908;DHT22;7545;52.092;7.006;2022-07-30T01:45:28;17.80;99.90
14908;DHT22;7545;52.092;7.006;2022-07-30T01:47:55;17.90;99.90
14908;DHT22;7545;52.092;7.006;2022-07-30T01:50:22;17.80;99.90
14908;DHT22;7545;52.092;7.006;2022-07-30T01:52:51;17.80;99.90
14908;DHT22;7545;52.092;7.006;2022-07-30T01:55:22;17.80;99.90
14908;DHT22;7545;52.092;7.006;2022-07-30T01:57:50;17.70;99.90
14908;DHT22;7545;52.092;7.006;2022-07-30T02:00:17;17.80;99.90
14908;DHT22;7545;52.092;7.006;2022-07-30T02:02:43;17.80;99.90
14908;DHT22;7545;52.092;7.006;2022-07-30T02:05:09;17.70;99.90
14908;DHT22;7545;52.092;7.006;2022-07-30T02:07:55;17.70;99.90
14908;DHT22;7545;52.092;7.006;2022-07-30T02:12:59;17.60;99.90
14908;DHT22;7545;52.092;7.006;2022-07-30T02:18:16;17.50;99.90
14908;DHT22;7545;52.092;7.006;2022-07-30T02:20:44;17.50;99.90
14908;DHT22;7545;52.092;7.006;2022-07-30T02:23:14;17.50;99.90
14908;DHT22;7545;52.092;7.006;2022-07-30T02:25:43;17.50;99.90
14908;DHT22;7545;52.092;7.006;2022-07-30T02:28:13;17.50;99.90
14908;DHT22;7545;52.092;7.006;2022-07-30T02:30:44;17.40;99.90
14908;DHT22;7545;52.092;7.006;2022-07-30T02:33:13;17.40;99.90
14908;DHT22;7545;52.092;7.006;2022-07-30T02:35:40;17.30;99.90
14908;DHT22;7545;52.092;7.006;2022-07-30T02:38:07;17.30;99.90
14908;DHT22;7545;52.092;7.006;2022-07-30T02:40:33;17.30;99.90
14908;DHT22;7545;52.092;7.006;2022-07-30T02:43:00;17.20;99.90
14908;DHT22;7545;52.092;7.006;2022-07-30T02:45:27;17.20;99.90
14908;DHT22;7545;52.092;7.006;2022-07-30T02:48:04;17.20;99.90
14908;DHT22;7545;52.092;7.006;2022-07-30T02:50:34;17.10;99.90
14908;DHT22;7545;52.092;7.006;2022-07-30T02:53:02;17.10;99.90
14908;DHT22;7545;52.092;7.006;2022-07-30T02:55:31;17.10;99.90
14908;DHT22;7545;52.092;7.006;2022-07-30T02:58:00;17.10;99.90
14908;DHT22;7545;52.092;7.006;2022-07-30T03:00:28;17.20;99.90
14908;DHT22;7545;52.092;7.006;2022-07-30T03:02:55;17.10;99.90
14908;DHT22;7545;52.092;7.006;2022-07-30T03:05:22;17.10;99.90
14908;DHT22;7545;52.092;7.006;2022-07-30T03:07:49;17.20;99.90
14908;DHT22;7545;52.092;7.006;2022-07-30T03:10:16;17.10;99.90
14908;DHT22;7545;52.092;7.006;2022-07-30T03:12:44;17.10;99.90
14908;DHT22;7545;52.092;7.006;2022-07-30T03:15:10;17.10;99.90
14908;DHT22;7545;52.092;7.006;2022-07-30T03:17:39;17.10;99.90
14908;DHT22;7545;52.092;7.006;2022-07-30T03:20:11;17.00;99.90
14908;DHT22;7545;52.092;7.006;2022-07-30T03:22:42;17.00;99.90
14908;DHT22;7545;52.092;7.006;2022-07-30T03:25:09;17.00;99.90
14908;DHT22;7545;52.092;7.006;2022-07-30T03:27:37;17.00;99.90
14908;DHT22;7545;52.092;7.006;2022-07-30T03:30:05;17.00;99.90
14908;DHT22;7545;52.092;7.006;2022-07-30T03:32:31;17.00;99.90
14908;DHT22;7545;52.092;7.006;2022-07-30T03:34:58;17.00;99.90
14908;DHT22;7545;52.092;7.006;2022-07-30T03:37:25;17.00;99.90
14908;DHT22;7545;52.092;7.006;2022-07-30T03:39:52;17.00;99.90
14908;DHT22;7545;52.092;7.006;2022-07-30T03:42:19;17.10;99.90
14908;DHT22;7545;52.092;7.006;2022-07-30T03:44:45;17.00;99.90
14908;DHT22;7545;52.092;7.006;2022-07-30T03:47:12;17.00;99.90
14908;DHT22;7545;52.092;7.006;2022-07-30T03:49:38;16.90;99.90
14908;DHT22;7545;52.092;7.006;2022-07-30T03:52:05;16.90;99.90
14908;DHT22;7545;52.092;7.006;2022-07-30T03:54:32;16.90;99.90
14908;DHT22;7545;52.092;7.006;2022-07-30T03:57:02;16.90;99.90
14908;DHT22;7545;52.092;7.006;2022-07-30T03:59:28;16.90;99.90
14908;DHT22;7545;52.092;7.006;2022-07-30T04:01:59;16.90;99.90
14908;DHT22;7545;52.092;7.006;2022-07-30T04:04:25;16.90;99.90
14908;DHT22;7545;52.092;7.006;2022-07-30T04:06:51;16.90;99.90
14908;DHT22;7545;52.092;7.006;2022-07-30T04:09:16;16.90;99.90
14908;DHT22;7545;52.092;7.006;2022-07-30T04:11:42;16.90;99.90
14908;DHT22;7545;52.092;7.006;2022-07-30T04:14:08;16.90;99.90
14908;DHT22;7545;52.092;7.006;2022-07-30T04:16:38;16.90;99.90
14908;DHT22;7545;52.092;7.006;2022-07-30T04:19:11;16.90;99.90
14908;DHT22;7545;52.092;7.006;2022-07-30T04:21:39;16.90;99.90
14908;DHT22;7545;52.092;7.006;2022-07-30T04:24:07;16.90;99.90
14908;DHT22;7545;52.092;7.006;2022-07-30T04:26:35;16.90;99.90
14908;DHT22;7545;52.092;7.006;2022-07-30T04:29:03;16.90;99.90
14908;DHT22;7545;52.092;7.006;2022-07-30T04:31:30;16.90;99.90
14908;DHT22;7545;52.092;7.006;2022-07-30T04:34:00;16.90;99.90
14908;DHT22;7545;52.092;7.006;2022-07-30T04:36:26;16.90;99.90
14908;DHT22;7545;52.092;7.006;2022-07-30T04:38:52;16.90;99.90
14908;DHT22;7545;52.092;7.006;2022-07-30T04:41:17;16.90;99.90
14908;DHT22;7545;52.092;7.006;2022-07-30T04:43:43;16.90;99.90
14908;DHT22;7545;52.092;7.006;2022-07-30T04:46:09;16.90;99.90
14908;DHT22;7545;52.092;7.006;2022-07-30T04:48:34;16.90;99.90
14908;DHT22;7545;52.092;7.006;2022-07-30T04:51:01;16.90;99.90
14908;DHT22;7545;52.092;7.006;2022-07-30T04:53:30;16.90;99.90
14908;DHT22;7545;52.092;7.006;2022-07-30T04:55:58;16.90;99.90
14908;DHT22;7545;52.092;7.006;2022-07-30T04:58:24;16.90;99.90
14908;DHT22;7545;52.092;7.006;2022-07-30T05:00:53;16.90;99.90
14908;DHT22;7545;52.092;7.006;2022-07-30T05:03:20;16.90;99.90
14908;DHT22;7545;52.092;7.006;2022-07-30T05:05:47;16.90;99.90
14908;DHT22;7545;52.092;7.006;2022-07-30T05:08:13;16.80;99.90
14908;DHT22;7545;52.092;7.006;2022-07-30T05:10:39;16.80;99.90
14908;DHT22;7545;52.092;7.006;2022-07-30T05:13:12;16.90;99.90
14908;DHT22;7545;52.092;7.006;2022-07-30T05:15:39;16.90;99.90
14908;DHT22;7545;52.092;7.006;2022-07-30T05:18:04;16.90;99.90
14908;DHT22;7545;52.092;7.006;2022-07-30T05:20:30;16.90;99.90
14908;DHT22;7545;52.092;7.006;2022-07-30T05:22:56;17.00;99.90
14908;DHT22;7545;52.092;7.006;2022-07-30T05:25:22;17.00;99.90
14908;DHT22;7545;52.092;7.006;2022-07-30T05:27:47;17.10;99.90
14908;DHT22;7545;52.092;7.006;2022-07-30T05:30:13;17.10;99.90
14908;DHT22;7545;52.092;7.006;2022-07-30T05:32:38;17.10;99.90
14908;DHT22;7545;52.092;7.006;2022-07-30T05:35:04;17.10;99.90
14908;DHT22;7545;52.092;7.006;2022-07-30T05:37:30;17.20;99.90
14908;DHT22;7545;52.092;7.006;2022-07-30T05:39:57;17.20;99.90
14908;DHT22;7545;52.092;7.006;2022-07-30T05:42:22;17.20;99.90
14908;DHT22;7545;52.092;7.006;2022-07-30T05:44:48;17.30;99.90
14908;DHT22;7545;52.092;7.006;2022-07-30T05:47:14;17.30;99.90
14908;DHT22;7545;52.092;7.006;2022-07-30T05:49:39;17.30;99.90
14908;DHT22;7545;52.092;7.006;2022-07-30T05:52:05;17.30;99.90
14908;DHT22;7545;52.092;7.006;2022-07-30T05:54:30;17.40;99.90
14908;DHT22;7545;52.092;7.006;2022-07-30T05:56:56;17.40;99.90
14908;DHT22;7545;52.092;7.006;2022-07-30T05:59:22;17.40;99.90
14908;DHT22;7545;52.092;7.006;2022-07-30T06:01:47;17.50;99.90
14908;DHT22;7545;52.092;7.006;2022-07-30T06:04:13;17.50;99.90
14908;DHT22;7545;52.092;7.006;2022-07-30T06:06:38;17.50;99.90
14908;DHT22;7545;52.092;7.006;2022-07-30T06:09:04;17.60;99.90
14908;DHT22;7545;52.092;7.006;2022-07-30T06:11:30;17.60;99.90
14908;DHT22;7545;52.092;7.006;2022-07-30T06:13:55;17.60;99.90
14908;DHT22;7545;52.092;7.006;2022-07-30T06:16:21;17.70;99.90
14908;DHT22;7545;52.092;7.006;2022-07-30T06:18:46;17.70;99.90
14908;DHT22;7545;52.092;7.006;2022-07-30T06:21:12;17.70;99.90
14908;DHT22;7545;52.092;7.006;2022-07-30T06:23:38;17.70;99.90
14908;DHT22;7545;52.092;7.006;2022-07-30T06:26:04;17.80;99.90
14908;DHT22;7545;52.092;7.006;2022-07-30T06:28:30;17.80;99.90
14908;DHT22;7545;52.092;7.006;2022-07-30T06:30:55;17.80;99.90
14908;DHT22;7545;52.092;7.006;2022-07-30T06:33:21;17.80;99.90
14908;DHT22;7545;52.092;7.006;2022-07-30T06:35:47;17.80;99.90
14908;DHT22;7545;52.092;7.006;2022-07-30T06:38:13;17.80;99.90
14908;DHT22;7545;52.092;7.006;2022-07-30T06:40:39;17.90;99.90
14908;DHT22;7545;52.092;7.006;2022-07-30T06:43:05;17.90;99.90
14908;DHT22;7545;52.092;7.006;2022-07-30T06:45:30;17.90;99.90
14908;DHT22;7545;52.092;7.006;2022-07-30T06:47:57;17.90;99.90
14908;DHT22;7545;52.092;7.006;2022-07-30T06:50:23;17.90;99.90
14908;DHT22;7545;52.092;7.006;2022-07-30T06:52:49;18.00;99.90
14908;DHT22;7545;52.092;7.006;2022-07-30T06:55:14;17.90;99.90
14908;DHT22;7545;52.092;7.006;2022-07-30T06:57:40;17.90;99.90
14908;DHT22;7545;52.092;7.006;2022-07-30T07:00:06;18.00;99.90
14908;DHT22;7545;52.092;7.006;2022-07-30T07:02:33;17.90;99.90
14908;DHT22;7545;52.092;7.006;2022-07-30T07:04:58;18.00;99.90
14908;DHT22;7545;52.092;7.006;2022-07-30T07:07:24;18.00;99.90
14908;DHT22;7545;52.092;7.006;2022-07-30T07:09:50;18.10;99.90
14908;DHT22;7545;52.092;7.006;2022-07-30T07:12:15;18.20;99.90
14908;DHT22;7545;52.092;7.006;2022-07-30T07:14:41;18.20;99.90
14908;DHT22;7545;52.092;7.006;2022-07-30T07:17:07;18.20;99.90
14908;DHT22;7545;52.092;7.006;2022-07-30T07:19:33;18.30;99.90
14908;DHT22;7545;52.092;7.006;2022-07-30T07:21:59;18.40;99.90
14908;DHT22;7545;52.092;7.006;2022-07-30T07:24:24;18.40;99.90
14908;DHT22;7545;52.092;7.006;2022-07-30T07:26:50;18.50;99.90
14908;DHT22;7545;52.092;7.006;2022-07-30T07:29:15;18.50;99.90
14908;DHT22;7545;52.092;7.006;2022-07-30T07:31:41;18.60;99.90
14908;DHT22;7545;52.092;7.006;2022-07-30T07:34:07;18.60;99.90
14908;DHT22;7545;52.092;7.006;2022-07-30T07:36:32;18.70;99.90
14908;DHT22;7545;52.092;7.006;2022-07-30T07:38:59;18.70;99.90
14908;DHT22;7545;52.092;7.006;2022-07-30T07:41:25;18.70;99.90
14908;DHT22;7545;52.092;7.006;2022-07-30T07:43:51;18.80;99.90
14908;DHT22;7545;52.092;7.006;2022-07-30T07:46:16;18.80;99.90
14908;DHT22;7545;52.092;7.006;2022-07-30T07:48:45;18.80;99.90
14908;DHT22;7545;52.092;7.006;2022-07-30T07:51:10;18.90;99.90
14908;DHT22;7545;52.092;7.006;2022-07-30T07:53:36;19.00;99.90
14908;DHT22;7545;52.092;7.006;2022-07-30T07:56:02;19.00;99.90
14908;DHT22;7545;52.092;7.006;2022-07-30T07:58:27;19.00;99.90
14908;DHT22;7545;52.092;7.006;2022-07-30T08:00:53;19.10;99.90
14908;DHT22;7545;52.092;7.006;2022-07-30T08:03:19;19.10;99.90
14908;DHT22;7545;52.092;7.006;2022-07-30T08:05:45;19.20;99.90
14908;DHT22;7545;52.092;7.006;2022-07-30T08:08:11;19.20;99.90
14908;DHT22;7545;52.092;7.006;2022-07-30T08:10:37;19.20;99.90
14908;DHT22;7545;52.092;7.006;2022-07-30T08:13:03;19.20;99.90
14908;DHT22;7545;52.092;7.006;2022-07-30T08:15:30;19.20;99.90
14908;DHT22;7545;52.092;7.006;2022-07-30T08:17:56;19.30;99.90
14908;DHT22;7545;52.092;7.006;2022-07-30T08:20:22;19.30;99.90
14908;DHT22;7545;52.092;7.006;2022-07-30T08:22:49;19.40;99.90
14908;DHT22;7545;52.092;7.006;2022-07-30T08:25:15;19.40;99.90
14908;DHT22;7545;52.092;7.006;2022-07-30T08:27:43;19.40;99.90
14908;DHT22;7545;52.092;7.006;2022-07-30T08:30:10;19.40;99.90
14908;DHT22;7545;52.092;7.006;2022-07-30T08:32:36;19.50;99.90
14908;DHT22;7545;52.092;7.006;2022-07-30T08:35:03;19.50;99.90
14908;DHT22;7545;52.092;7.006;2022-07-30T08:37:29;19.60;99.90
14908;DHT22;7545;52.092;7.006;2022-07-30T08:39:54;19.60;99.90
14908;DHT22;7545;52.092;7.006;2022-07-30T08:42:21;19.70;99.90
14908;DHT22;7545;52.092;7.006;2022-07-30T08:44:47;19.70;99.90
14908;DHT22;7545;52.092;7.006;2022-07-30T08:47:16;19.80;99.90
14908;DHT22;7545;52.092;7.006;2022-07-30T08:49:44;19.80;99.90
14908;DHT22;7545;52.092;7.006;2022-07-30T08:52:10;19.90;99.90
14908;DHT22;7545;52.092;7.006;2022-07-30T08:54:37;20.00;99.90
14908;DHT22;7545;52.092;7.006;2022-07-30T08:57:03;20.00;99.90
14908;DHT22;7545;52.092;7.006;2022-07-30T08:59:30;20.10;99.90
14908;DHT22;7545;52.092;7.006;2022-07-30T09:01:57;20.20;99.90
14908;DHT22;7545;52.092;7.006;2022-07-30T09:04:22;20.20;99.90
14908;DHT22;7545;52.092;7.006;2022-07-30T09:06:48;20.30;99.90
14908;DHT22;7545;52.092;7.006;2022-07-30T09:09:14;20.40;99.90
14908;DHT22;7545;52.092;7.006;2022-07-30T09:11:40;20.50;99.90
14908;DHT22;7545;52.092;7.006;2022-07-30T09:14:13;20.60;99.90
14908;DHT22;7545;52.092;7.006;2022-07-30T09:16:40;20.70;99.90
14908;DHT22;7545;52.092;7.006;2022-07-30T09:21:40;20.80;99.90
14908;DHT22;7545;52.092;7.006;2022-07-30T09:24:08;20.90;99.90
14908;DHT22;7545;52.092;7.006;2022-07-30T09:29:21;21.10;99.90
14908;DHT22;7545;52.092;7.006;2022-07-30T09:32:07;21.20;99.90
14908;DHT22;7545;52.092;7.006;2022-07-30T09:34:35;21.20;99.90
14908;DHT22;7545;52.092;7.006;2022-07-30T09:39:39;21.40;99.90
14908;DHT22;7545;52.092;7.006;2022-07-30T09:42:22;21.50;99.90
14908;DHT22;7545;52.092;7.006;2022-07-30T09:44:50;21.70;99.90
14908;DHT22;7545;52.092;7.006;2022-07-30T09:47:33;21.70;99.90
14908;DHT22;7545;52.092;7.006;2022-07-30T09:52:31;22.00;99.90
14908;DHT22;7545;52.092;7.006;2022-07-30T09:54:57;22.00;99.90
14908;DHT22;7545;52.092;7.006;2022-07-30T09:57:23;22.10;99.90
14908;DHT22;7545;52.092;7.006;2022-07-30T09:59:49;22.20;99.90
14908;DHT22;7545;52.092;7.006;2022-07-30T10:02:14;22.20;99.90
14908;DHT22;7545;52.092;7.006;2022-07-30T10:04:40;22.30;99.90
14908;DHT22;7545;52.092;7.006;2022-07-30T10:07:16;22.30;99.90
14908;DHT22;7545;52.092;7.006;2022-07-30T10:09:43;22.40;99.90
14908;DHT22;7545;52.092;7.006;2022-07-30T10:12:10;22.50;99.90
14908;DHT22;7545;52.092;7.006;2022-07-30T10:14:42;22.60;99.90
14908;DHT22;7545;52.092;7.006;2022-07-30T10:17:08;22.70;99.90
14908;DHT22;7545;52.092;7.006;2022-07-30T10:19:34;22.80;99.90
14908;DHT22;7545;52.092;7.006;2022-07-30T10:22:01;23.00;99.90
14908;DHT22;7545;52.092;7.006;2022-07-30T10:24:28;23.00;99.90
14908;DHT22;7545;52.092;7.006;2022-07-30T10:26:54;23.10;99.90
14908;DHT22;7545;52.092;7.006;2022-07-30T10:29:21;23.20;99.90
14908;DHT22;7545;52.092;7.006;2022-07-30T10:31:47;23.20;99.90
14908;DHT22;7545;52.092;7.006;2022-07-30T10:34:16;23.20;99.90
14908;DHT22;7545;52.092;7.006;2022-07-30T10:36:51;23.30;99.90
14908;DHT22;7545;52.092;7.006;2022-07-30T10:39:23;23.30;99.90
14908;DHT22;7545;52.092;7.006;2022-07-30T10:41:59;23.40;99.90
14908;DHT22;7545;52.092;7.006;2022-07-30T10:47:18;23.50;99.90
14908;DHT22;7545;52.092;7.006;2022-07-30T10:52:47;23.70;99.90
14908;DHT22;7545;52.092;7.006;2022-07-30T10:55:26;23.80;99.90
14908;DHT22;7545;52.092;7.006;2022-07-30T11:00:31;24.00;99.90
14908;DHT22;7545;52.092;7.006;2022-07-30T11:03:15;24.00;99.90
14908;DHT22;7545;52.092;7.006;2022-07-30T11:05:42;24.10;99.90
14908;DHT22;7545;52.092;7.006;2022-07-30T11:08:35;24.20;99.90
14908;DHT22;7545;52.092;7.006;2022-07-30T11:11:02;24.40;99.90
14908;DHT22;7545;52.092;7.006;2022-07-30T11:16:19;24.70;99.90
14908;DHT22;7545;52.092;7.006;2022-07-30T11:19:05;24.80;99.90
14908;DHT22;7545;52.092;7.006;2022-07-30T11:21:31;24.90;99.90
14908;DHT22;7545;52.092;7.006;2022-07-30T11:23:58;24.90;99.90
14908;DHT22;7545;52.092;7.006;2022-07-30T11:29:06;24.80;99.90
14908;DHT22;7545;52.092;7.006;2022-07-30T11:31:35;24.80;99.90
14908;DHT22;7545;52.092;7.006;2022-07-30T11:34:33;24.90;99.90
14908;DHT22;7545;52.092;7.006;2022-07-30T11:37:12;24.90;99.90
14908;DHT22;7545;52.092;7.006;2022-07-30T11:44:51;25.20;99.90
14908;DHT22;7545;52.092;7.006;2022-07-30T11:47:17;25.40;99.90
14908;DHT22;7545;52.092;7.006;2022-07-30T11:49:46;25.50;99.90
14908;DHT22;7545;52.092;7.006;2022-07-30T11:52:12;25.60;99.90
14908;DHT22;7545;52.092;7.006;2022-07-30T11:54:53;25.70;99.90
14908;DHT22;7545;52.092;7.006;2022-07-30T11:57:19;25.60;99.90
14908;DHT22;7545;52.092;7.006;2022-07-30T11:59:54;25.70;99.90
14908;DHT22;7545;52.092;7.006;2022-07-30T12:02:26;25.70;99.90
14908;DHT22;7545;52.092;7.006;2022-07-30T12:04:52;25.70;99.90
14908;DHT22;7545;52.092;7.006;2022-07-30T12:07:22;25.60;99.90
14908;DHT22;7545;52.092;7.006;2022-07-30T12:09:47;25.50;99.90
14908;DHT22;7545;52.092;7.006;2022-07-30T12:12:21;25.40;99.90
14908;DHT22;7545;52.092;7.006;2022-07-30T12:14:48;25.30;99.90
14908;DHT22;7545;52.092;7.006;2022-07-30T12:17:14;25.20;99.90
14908;DHT22;7545;52.092;7.006;2022-07-30T12:19:46;25.10;99.90
14908;DHT22;7545;52.092;7.006;2022-07-30T12:22:12;24.90;99.90
14908;DHT22;7545;52.092;7.006;2022-07-30T12:24:38;24.90;99.90
14908;DHT22;7545;52.092;7.006;2022-07-30T12:27:07;24.90;99.90
14908;DHT22;7545;52.092;7.006;2022-07-30T12:29:33;24.90;99.90
14908;DHT22;7545;52.092;7.006;2022-07-30T12:32:00;25.00;99.90
14908;DHT22;7545;52.092;7.006;2022-07-30T12:34:26;25.10;99.90
14908;DHT22;7545;52.092;7.006;2022-07-30T12:36:53;25.20;99.90
14908;DHT22;7545;52.092;7.006;2022-07-30T12:39:24;25.30;99.90
14908;DHT22;7545;52.092;7.006;2022-07-30T12:41:51;25.40;99.90
14908;DHT22;7545;52.092;7.006;2022-07-30T12:44:41;25.50;99.90
14908;DHT22;7545;52.092;7.006;2022-07-30T12:47:19;25.60;99.90
14908;DHT22;7545;52.092;7.006;2022-07-30T12:49:46;25.80;99.90
14908;DHT22;7545;52.092;7.006;2022-07-30T12:52:32;25.80;99.90
14908;DHT22;7545;52.092;7.006;2022-07-30T12:57:25;25.90;99.90
14908;DHT22;7545;52.092;7.006;2022-07-30T13:00:03;26.00;99.90
14908;DHT22;7545;52.092;7.006;2022-07-30T13:02:33;26.00;99.90
14908;DHT22;7545;52.092;7.006;2022-07-30T13:05:00;26.00;99.90
14908;DHT22;7545;52.092;7.006;2022-07-30T13:07:25;26.10;99.90
14908;DHT22;7545;52.092;7.006;2022-07-30T13:10:07;26.10;99.90
14908;DHT22;7545;52.092;7.006;2022-07-30T13:12:33;26.10;99.90
14908;DHT22;7545;52.092;7.006;2022-07-30T13:14:58;26.20;99.90
14908;DHT22;7545;52.092;7.006;2022-07-30T13:17:24;26.20;99.90
14908;DHT22;7545;52.092;7.006;2022-07-30T13:19:50;26.20;99.90
14908;DHT22;7545;52.092;7.006;2022-07-30T13:22:15;26.20;99.90
14908;DHT22;7545;52.092;7.006;2022-07-30T13:24:41;26.20;99.90
14908;DHT22;7545;52.092;7.006;2022-07-30T13:27:06;26.20;99.90
14908;DHT22;7545;52.092;7.006;2022-07-30T13:29:33;26.20;99.90
14908;DHT22;7545;52.092;7.006;2022-07-30T13:31:58;26.20;99.90
14908;DHT22;7545;52.092;7.006;2022-07-30T13:34:24;26.20;99.90
14908;DHT22;7545;52.092;7.006;2022-07-30T13:36:50;26.20;99.80
14908;DHT22;7545;52.092;7.006;2022-07-30T13:39:15;26.20;99.60
14908;DHT22;7545;52.092;7.006;2022-07-30T13:41:41;26.20;98.30
14908;DHT22;7545;52.092;7.006;2022-07-30T13:44:07;26.10;98.20
14908;DHT22;7545;52.092;7.006;2022-07-30T13:46:32;26.20;98.90
14908;DHT22;7545;52.092;7.006;2022-07-30T13:48:58;26.20;99.30
14908;DHT22;7545;52.092;7.006;2022-07-30T13:51:24;26.30;99.80
14908;DHT22;7545;52.092;7.006;2022-07-30T13:53:50;26.30;99.70
14908;DHT22;7545;52.092;7.006;2022-07-30T13:56:15;26.40;99.30
14908;DHT22;7545;52.092;7.006;2022-07-30T13:58:42;26.30;98.40
14908;DHT22;7545;52.092;7.006;2022-07-30T14:01:08;26.40;98.40
14908;DHT22;7545;52.092;7.006;2022-07-30T14:03:34;26.40;98.70
14908;DHT22;7545;52.092;7.006;2022-07-30T14:06:00;26.40;98.60
14908;DHT22;7545;52.092;7.006;2022-07-30T14:08:26;26.40;98.80
14908;DHT22;7545;52.092;7.006;2022-07-30T14:10:53;26.40;98.60
14908;DHT22;7545;52.092;7.006;2022-07-30T14:13:19;26.40;98.80
14908;DHT22;7545;52.092;7.006;2022-07-30T14:15:44;26.40;98.40
14908;DHT22;7545;52.092;7.006;2022-07-30T14:18:10;26.30;98.60
14908;DHT22;7545;52.092;7.006;2022-07-30T14:20:36;26.30;98.60
14908;DHT22;7545;52.092;7.006;2022-07-30T14:23:02;26.30;98.60
14908;DHT22;7545;52.092;7.006;2022-07-30T14:25:27;26.30;98.50
14908;DHT22;7545;52.092;7.006;2022-07-30T14:27:53;26.30;98.80
14908;DHT22;7545;52.092;7.006;2022-07-30T14:30:18;26.30;98.70
14908;DHT22;7545;52.092;7.006;2022-07-30T14:32:44;26.30;98.20
14908;DHT22;7545;52.092;7.006;2022-07-30T14:35:10;26.30;98.20
14908;DHT22;7545;52.092;7.006;2022-07-30T14:37:39;26.30;98.00
14908;DHT22;7545;52.092;7.006;2022-07-30T14:40:06;26.30;96.70
14908;DHT22;7545;52.092;7.006;2022-07-30T14:42:32;26.30;97.20
14908;DHT22;7545;52.092;7.006;2022-07-30T14:45:01;26.30;97.70
14908;DHT22;7545;52.092;7.006;2022-07-30T14:47:27;26.30;97.80
14908;DHT22;7545;52.092;7.006;2022-07-30T14:49:52;26.30;96.50
14908;DHT22;7545;52.092;7.006;2022-07-30T14:52:18;26.30;96.50
14908;DHT22;7545;52.092;7.006;2022-07-30T14:54:44;26.30;95.80
14908;DHT22;7545;52.092;7.006;2022-07-30T14:57:09;26.20;95.40
14908;DHT22;7545;52.092;7.006;2022-07-30T14:59:35;26.20;95.50
14908;DHT22;7545;52.092;7.006;2022-07-30T15:02:01;26.20;95.60
14908;DHT22;7545;52.092;7.006;2022-07-30T15:04:26;26.20;95.20
14908;DHT22;7545;52.092;7.006;2022-07-30T15:06:52;26.20;95.10
14908;DHT22;7545;52.092;7.006;2022-07-30T15:09:18;26.20;95.20
14908;DHT22;7545;52.092;7.006;2022-07-30T15:11:46;26.20;95.60
14908;DHT22;7545;52.092;7.006;2022-07-30T15:14:13;26.20;95.20
14908;DHT22;7545;52.092;7.006;2022-07-30T15:16:39;26.20;95.50
14908;DHT22;7545;52.092;7.006;2022-07-30T15:19:05;26.20;95.60
14908;DHT22;7545;52.092;7.006;2022-07-30T15:21:31;26.20;96.00
14908;DHT22;7545;52.092;7.006;2022-07-30T15:23:56;26.20;96.20
14908;DHT22;7545;52.092;7.006;2022-07-30T15:26:22;26.20;96.30
14908;DHT22;7545;52.092;7.006;2022-07-30T15:28:47;26.30;96.80
14908;DHT22;7545;52.092;7.006;2022-07-30T15:31:13;26.30;96.60
14908;DHT22;7545;52.092;7.006;2022-07-30T15:33:39;26.30;96.60
14908;DHT22;7545;52.092;7.006;2022-07-30T15:36:08;26.40;96.80
14908;DHT22;7545;52.092;7.006;2022-07-30T15:38:35;26.40;96.70
14908;DHT22;7545;52.092;7.006;2022-07-30T15:41:00;26.40;96.70
14908;DHT22;7545;52.092;7.006;2022-07-30T15:43:26;26.40;96.80
14908;DHT22;7545;52.092;7.006;2022-07-30T15:45:51;26.40;97.10
14908;DHT22;7545;52.092;7.006;2022-07-30T15:48:17;26.40;97.30
14908;DHT22;7545;52.092;7.006;2022-07-30T15:50:43;26.40;97.40
14908;DHT22;7545;52.092;7.006;2022-07-30T15:53:09;26.30;97.40
14908;DHT22;7545;52.092;7.006;2022-07-30T15:55:35;26.20;97.30
14908;DHT22;7545;52.092;7.006;2022-07-30T15:58:01;26.20;97.50
14908;DHT22;7545;52.092;7.006;2022-07-30T16:00:27;26.10;97.70
14908;DHT22;7545;52.092;7.006;2022-07-30T16:02:52;26.10;98.00
14908;DHT22;7545;52.092;7.006;2022-07-30T16:05:21;26.10;97.90
14908;DHT22;7545;52.092;7.006;2022-07-30T16:07:47;26.10;97.70
14908;DHT22;7545;52.092;7.006;2022-07-30T16:10:12;26.10;98.00
14908;DHT22;7545;52.092;7.006;2022-07-30T16:12:38;26.00;97.70
14908;DHT22;7545;52.092;7.006;2022-07-30T16:15:04;25.90;97.70
14908;DHT22;7545;52.092;7.006;2022-07-30T16:17:30;25.90;98.10
14908;DHT22;7545;52.092;7.006;2022-07-30T16:19:56;25.90;98.10
14908;DHT22;7545;52.092;7.006;2022-07-30T16:22:21;25.80;97.80
14908;DHT22;7545;52.092;7.006;2022-07-30T16:24:47;25.70;97.90